Latest Weather Observations for Bathurst Airport

IDN60801

Issued at 10:02 pm EDT Saturday 25 February 2017 (issued every 30 minutes, with the page automatically refreshed every 10 minutes)

About weather observations | Map of weather stations | Latest weather observations for NSW | Other Formats
Station Details ID: 063291 Name: BATHURST AIRPORT AWS Lat: -33.41 Lon: 149.65 Height: 744.5 m
Data from the previous 72 hours. | See also: Recent months at Bathurst Airport
Date/Time
EDT
Temp
°C
App
Temp
°C
Dew
Point
°C
Rel
Hum
%
Delta-T
°C
Wind Press
QNH
hPa
Press
MSL
hPa
Rain since
9am
mm
Dir  Spd
km/h
Gust
km/h
Spd
kts
Gust
kts
25/10:00pm 16.5 13.8 13.0 80 2.0 SE 19 26 10 14 1021.0 1017.4 0.0
25/09:30pm 16.9 15.3 12.8 77 2.4 ESE 13 19 7 10 1021.2 1017.6 0.0
25/09:00pm 16.7 14.4 13.0 79 2.1 ESE 17 22 9 12 1020.9 1017.3 0.0
25/08:30pm 17.1 14.7 12.8 76 2.5 ESE 17 26 9 14 1020.5 1016.8 0.0
25/08:00pm 17.4 15.4 12.7 74 2.7 ESE 15 22 8 12 1020.5 1016.8 0.0
25/07:30pm 18.2 15.2 12.4 69 3.3 E 20 28 11 15 1020.1 1016.5 0.0
25/07:00pm 19.3 15.1 12.3 64 4.0 ENE 26 44 14 24 1020.1 1016.5 0.0
25/06:30pm 19.6 15.9 12.8 65 4.0 E 24 33 13 18 1019.8 1016.2 0.0
25/06:00pm 19.5 15.8 12.8 65 3.9 E 24 35 13 19 1019.6 1016.0 0.0
25/05:30pm 20.8 15.9 12.5 59 4.8 ENE 30 41 16 22 1019.0 1015.3 0.0
25/05:00pm 23.0 18.4 13.5 55 5.7 E 30 41 16 22 1018.9 1015.2 0.0
25/04:30pm 21.5 18.3 13.2 59 4.9 E 22 35 12 19 1019.2 1015.5 0.0
25/04:00pm 21.9 17.4 12.7 56 5.4 ENE 28 37 15 20 1019.4 1015.7 0.0
25/03:30pm 23.7 19.4 12.0 48 6.9 ENE 26 33 14 18 1019.2 1015.5 0.0
25/03:00pm 27.1 24.1 12.7 41 8.7 E 20 32 11 17 1019.1 1015.4 0.0
25/02:30pm 26.2 22.7 12.3 42 8.3 ENE 22 32 12 17 1019.6 1016.0 0.0
25/02:00pm 25.7 22.9 13.2 46 7.5 ENE 20 35 11 19 1019.9 1016.3 0.0
25/01:30pm 25.9 23.6 14.1 48 7.2 ENE 19 30 10 16 1020.2 1016.6 0.0
25/01:00pm 25.2 21.8 12.4 45 7.6 ENE 22 30 12 16 1020.2 1016.6 0.0
25/12:30pm 24.7 21.5 12.0 45 7.5 E 20 30 11 16 1020.7 1017.0 0.0
25/12:00pm 24.6 21.0 13.2 49 6.8 ENE 24 32 13 17 1021.1 1017.5 0.0
25/11:30am 25.0 22.1 13.9 50 6.8 ENE 22 33 12 18 1021.4 1017.8 0.0
25/11:00am 23.6 20.5 13.5 53 6.1 NE 22 30 12 16 1021.8 1018.1 0.0
25/10:30am 22.4 19.2 13.2 56 5.5 ENE 22 33 12 18 1021.8 1018.1 0.0
25/10:00am 22.3 19.8 13.6 58 5.2 E 19 28 10 15 1021.8 1018.1 0.0
25/09:30am 21.3 17.5 13.5 61 4.6 ENE 26 32 14 17 1021.8 1018.1 0.0
25/09:00am 20.9 18.5 13.8 64 4.2 E 19 28 10 15 1021.6 1018.0 0.4
25/08:30am 20.4 19.2 14.1 67 3.8 E 13 19 7 10 1021.5 1017.9 0.4
25/08:00am 19.3 18.5 13.9 71 3.2 ESE 11 19 6 10 1021.5 1017.9 0.4
25/07:30am 18.3 17.7 14.6 79 2.2 ESE 11 19 6 10 1021.0 1017.4 0.4
25/07:00am 17.5 16.7 15.0 85 1.5 ESE 13 17 7 9 1020.7 1017.0 0.4
25/06:30am 16.9 16.6 14.4 85 1.5 ESE 9 11 5 6 1020.5 1016.8 0.4
25/06:00am 17.3 16.9 14.2 82 1.8 ESE 9 13 5 7 1020.2 1016.6 0.4
25/05:30am 17.9 16.5 14.4 80 2.1 ESE 15 20 8 11 1020.1 1016.5 0.4
25/05:00am 18.4 17.0 14.5 78 2.3 SE 15 19 8 10 1020.2 1016.6 0.4
25/04:30am 18.0 17.2 14.1 78 2.3 SE 11 17 6 9 1020.4 1016.7 0.4
25/04:00am 18.7 17.7 14.6 77 2.5 ESE 13 32 7 17 1019.9 1016.3 0.4
25/03:30am 18.5 17.8 14.4 77 2.4 ESE 11 17 6 9 1019.9 1016.3 0.4
25/03:00am 18.6 18.4 14.7 78 2.3 E 9 15 5 8 1019.9 1016.3 0.4
25/02:30am 18.9 18.7 14.6 76 2.6 E 9 17 5 9 1020.1 1016.5 0.4
25/02:00am 19.0 18.4 14.7 76 2.6 E 11 17 6 9 1020.4 1016.7 0.4
25/01:30am 19.0 18.3 15.3 79 2.2 E 13 20 7 11 1020.5 1016.8 0.4
25/01:00am 19.1 17.6 15.2 78 2.4 E 17 26 9 14 1020.9 1017.3 0.4
25/12:30am 19.0 17.4 15.1 78 2.4 E 17 24 9 13 1020.8 1017.2 0.4
25/12:00am 19.5 17.4 14.7 74 2.9 E 19 30 10 16 1020.9 1017.3 0.4
 
Date/Time
EDT
Temp
°C
App
Temp
°C
Dew
Point
°C
Rel
Hum
%
Delta-T
°C
Wind Press
QNH
hPa
Press
MSL
hPa
Rain since
9am
mm
Dir  Spd
km/h
Gust
km/h
Spd
kts
Gust
kts
24/11:30pm 19.9 17.9 15.5 76 2.7 ENE 20 28 11 15 1021.0 1017.4 0.4
24/11:00pm 20.1 18.8 15.9 77 2.6 E 17 22 9 12 1021.1 1017.5 0.4
24/10:30pm 20.1 20.6 15.5 75 2.8 E 7 19 4 10 1021.2 1017.6 0.4
24/10:00pm 20.4 19.8 14.7 70 3.4 SSE 11 13 6 7 1021.2 1017.6 0.4
24/09:30pm 21.5 20.5 12.4 56 5.3 E 9 11 5 6 1020.9 1017.3 0.4
24/09:00pm 21.9 21.6 11.3 51 6.1 NNE 4 7 2 4 1020.7 1017.0 0.4
24/08:30pm 20.6 19.1 10.4 52 5.7 NNE 9 13 5 7 1020.1 1016.5 0.4
24/08:00pm 22.2 20.9 11.3 50 6.3 NNE 9 11 5 6 1019.6 1016.0 0.4
24/07:30pm 24.7 21.8 12.3 46 7.3 NNE 19 24 10 13 1019.0 1015.3 0.4
24/07:00pm 26.1 24.2 12.9 44 7.9 NNE 15 17 8 9 1018.9 1015.2 0.4
24/06:30pm 28.5 26.0 12.4 37 9.7 ENE 17 32 9 17 1018.5 1014.9 0.4
24/06:00pm 29.1 26.0 11.6 33 10.4 NE 19 24 10 13 1018.3 1014.7 0.4
24/05:30pm 28.7 24.9 11.3 34 10.3 NE 22 26 12 14 1018.4 1014.8 0.4
24/05:00pm 30.3 25.9 11.8 32 11.1 NE 26 33 14 18 1018.4 1014.8 0.4
24/04:30pm 30.3 25.5 11.8 32 11.1 NNE 28 35 15 19 1018.5 1014.9 0.4
24/04:00pm 28.6 22.4 9.3 30 11.1 NNE 32 43 17 23 1018.7 1015.1 0.4
24/03:30pm 30.9 26.0 8.6 25 12.8 N 24 30 13 16 1018.4 1014.8 0.4
24/03:00pm 33.1 30.4 10.4 25 13.5 NW 15 26 8 14 1018.7 1015.1 0.4
24/02:30pm 28.9 22.9 6.9 25 12.2 NNW 28 43 15 23 1019.0 1015.3 0.4
24/02:00pm 24.2 19.7 12.5 48 6.9 N 28 46 15 25 1019.6 1016.0 0.4
24/01:57pm 23.5 19.2 11.9 48 6.8 N 26 46 14 25 1019.7 1016.1 0.4
24/01:30pm 23.9 20.6 14.0 54 6.0 N 24 33 13 18 1020.9 1017.3 0.0
24/01:10pm 22.2 17.2 13.3 57 5.3 NW 32 39 17 21 1021.2 1017.6 0.0
24/01:00pm 23.2 16.6 12.5 51 6.3 WNW 39 54 21 29 1021.1 1017.5 0.0
24/12:52pm 25.8 20.3 9.2 35 9.4 WNW 28 54 15 29 1020.8 1017.2 0.0
24/12:49pm 27.5 23.8 9.3 32 10.4 WNW 19 41 10 22 1020.9 1017.3 0.0
24/12:30pm 33.2 31.1 6.5 19 15.0 NW 7 20 4 11 1020.2 1016.6 0.0
24/12:00pm 32.2 30.2 10.3 26 12.9 W 11 17 6 9 1020.9 1017.3 0.0
24/11:30am 31.1 29.0 9.9 27 12.4 WSW 11 17 6 9 1021.3 1017.7 0.0
24/11:00am 29.7 27.7 10.3 30 11.3 WNW 11 17 6 9 1021.5 1017.9 0.0
24/10:30am 29.2 27.7 9.3 29 11.4 N 7 15 4 8 1021.9 1018.2 0.0
24/10:00am 28.8 27.9 10.5 32 10.7 E 6 9 3 5 1022.1 1018.5 0.0
24/09:30am 26.0 26.1 11.4 40 8.6 ESE 2 7 1 4 1022.2 1018.6 0.0
24/09:00am 22.9 23.3 11.3 48 6.7 CALM 0 6 0 3 1022.2 1018.6 0.0
24/08:30am 21.0 20.9 12.2 57 5.1 ESE 4 7 2 4 1022.2 1018.6 0.0
24/08:00am 18.1 17.4 12.1 68 3.4 SSW 7 7 4 4 1022.2 1018.6 0.0
24/07:30am 16.4 15.9 12.2 76 2.4 S 6 9 3 5 1021.9 1018.2 0.0
24/07:00am 16.2 16.9 12.2 77 2.3 CALM 0 0 0 0 1021.5 1017.9 0.0
24/06:30am 16.2 16.5 12.2 77 2.3 SSE 2 7 1 4 1021.3 1017.7 0.0
24/06:00am 16.3 15.4 10.6 69 3.1 SSE 6 9 3 5 1021.0 1017.4 0.0
24/05:30am 17.8 16.7 11.8 68 3.4 S 9 9 5 5 1020.9 1017.3 0.0
24/05:00am 18.3 17.8 12.1 67 3.5 S 6 7 3 4 1020.8 1017.2 0.0
24/04:30am 17.8 18.2 11.4 66 3.6 CALM 0 0 0 0 1020.6 1016.9 0.0
24/04:00am 18.5 17.7 11.6 64 3.9 ENE 7 9 4 5 1020.8 1017.2 0.0
24/03:30am 18.5 17.0 12.0 66 3.7 ENE 11 15 6 8 1020.9 1017.3 0.0
24/03:00am 20.6 19.9 12.1 58 4.9 SSE 7 9 4 5 1020.9 1017.3 0.0
24/02:57am 20.8 20.3 12.8 60 4.7 S 7 11 4 6 1020.9 1017.3 0.0
24/02:38am 18.7 17.2 11.8 64 3.9 SSW 11 11 6 6 1021.0 1017.4 0.0
24/02:30am 18.5 16.8 11.3 63 4.1 SW 11 13 6 7 1021.1 1017.5 0.0
24/02:00am 20.8 21.3 11.7 56 5.2 CALM 0 0 0 0 1020.9 1017.3 0.0
24/01:30am 22.2 22.4 11.9 52 6.0 S 2 6 1 3 1020.9 1017.3 0.0
24/01:00am 22.6 21.9 12.0 51 6.2 SSW 7 7 4 4 1021.0 1017.4 0.0
24/12:30am 22.7 23.2 11.7 49 6.4 CALM 0 0 0 0 1021.1 1017.5 0.0
24/12:00am 23.3 23.9 12.0 49 6.6 CALM 0 0 0 0 1021.3 1017.7 0.0
 
Date/Time
EDT
Temp
°C
App
Temp
°C
Dew
Point
°C
Rel
Hum
%
Delta-T
°C
Wind Press
QNH
hPa
Press
MSL
hPa
Rain since
9am
mm
Dir  Spd
km/h
Gust
km/h
Spd
kts
Gust
kts
23/11:30pm 23.6 23.7 11.6 47 7.0 NE 2 6 1 3 1021.2 1017.6 0.0
23/11:00pm 23.6 24.3 12.3 49 6.6 CALM 0 0 0 0 1021.3 1017.7 0.0
23/10:30pm 23.3 21.9 11.0 46 7.1 NE 9 15 5 8 1021.3 1017.7 0.0
23/10:00pm 25.3 22.8 11.1 41 8.2 NE 15 17 8 9 1021.2 1017.6 0.0
23/09:30pm 25.3 24.1 9.6 37 8.9 NE 6 7 3 4 1021.2 1017.6 0.0
23/09:00pm 25.3 23.4 9.2 36 9.1 NE 9 13 5 7 1021.0 1017.4 0.0
23/08:30pm 26.6 25.4 9.5 34 9.8 SW 6 13 3 7 1020.6 1016.9 0.0
23/08:00pm 26.7 24.7 8.6 32 10.1 SW 9 13 5 7 1020.1 1016.5 0.0
23/07:30pm 28.6 25.2 9.3 30 11.1 WSW 17 22 9 12 1019.9 1016.3 0.0
23/07:00pm 30.2 25.8 9.1 27 12.1 SW 22 26 12 14 1019.6 1016.0 0.0
23/06:30pm 32.5 29.1 5.9 19 14.7 W 13 19 7 10 1019.4 1015.7 0.0
23/06:00pm 33.4 32.0 7.4 20 14.8 SW 4 11 2 6 1019.3 1015.6 0.0
23/05:30pm 33.3 30.2 7.3 20 14.8 WNW 13 20 7 11 1019.4 1015.7 0.0
23/05:00pm 33.6 30.9 9.0 22 14.3 NW 13 22 7 12 1019.4 1015.7 0.0
23/04:30pm 33.2 30.0 8.6 22 14.3 W 15 24 8 13 1019.6 1016.0 0.0
23/04:00pm 33.5 31.0 8.2 21 14.6 SW 11 20 6 11 1019.8 1016.2 0.0
23/03:30pm 33.6 29.8 7.6 20 14.9 WNW 17 28 9 15 1020.0 1016.4 0.0
23/03:00pm 33.7 30.1 8.3 21 14.6 NW 17 26 9 14 1020.2 1016.6 0.0
23/02:30pm 32.8 29.3 8.9 23 13.9 WNW 17 26 9 14 1020.7 1017.0 0.0
23/02:00pm 31.9 29.3 9.4 25 13.1 NW 13 26 7 14 1021.0 1017.4 0.0
23/01:30pm 31.8 29.2 9.3 25 13.1 NW 13 24 7 13 1021.3 1017.7 0.0
23/01:00pm 31.1 28.4 8.8 25 12.8 WNW 13 24 7 13 1021.6 1018.0 0.0
23/12:30pm 30.0 27.3 10.5 30 11.5 W 15 24 8 13 1022.0 1018.4 0.0
23/12:00pm 30.9 29.2 12.3 32 11.3 NNW 13 28 7 15 1022.2 1018.6 0.0
23/11:30am 29.5 26.9 12.0 34 10.5 NNW 17 26 9 14 1022.4 1018.8 0.0
23/11:00am 28.1 24.7 11.2 35 9.9 NNW 20 26 11 14 1022.6 1019.0 0.0
23/10:30am 27.7 25.4 12.9 40 9.0 NNW 17 24 9 13 1022.8 1019.2 0.0
23/10:00am 25.8 24.5 13.6 47 7.4 NNW 13 20 7 11 1022.7 1019.1 0.0
23/09:30am 21.7 21.0 13.1 58 5.1 W 9 13 5 7 1022.9 1019.3 0.0
23/09:00am 20.0 19.1 12.7 63 4.2 WSW 9 11 5 6 1022.5 1018.9 0.0
23/08:30am 18.9 19.2 12.2 65 3.9 NE 2 7 1 4 1022.1 1018.5 0.0
23/08:00am 17.1 17.2 12.8 76 2.5 SE 4 9 2 5 1022.0 1018.4 0.0
23/07:30am 14.4 14.2 13.1 92 0.7 W 6 7 3 4 1021.9 1018.2 0.0
23/07:00am 13.5 12.9 12.4 93 0.6 SSW 7 9 4 5 1021.2 1017.6 0.0
23/06:30am 14.9 14.2 13.1 89 1.0 ESE 9 11 5 6 1020.7 1017.0 0.0
23/06:00am 15.1 14.1 13.3 89 1.0 SE 11 11 6 6 1020.7 1017.0 0.0
23/05:30am 15.0 14.9 13.2 89 1.0 E 6 7 3 4 1020.8 1017.2 0.0
23/05:00am 15.8 15.6 13.1 84 1.6 E 6 7 3 4 1020.7 1017.0 0.0
23/04:30am 16.2 17.1 12.9 81 1.9 CALM 0 0 0 0 1020.6 1016.9 0.0
23/04:00am 16.4 16.0 12.4 77 2.3 E 6 9 3 5 1020.7 1017.0 0.0
23/03:30am 16.8 17.7 12.9 78 2.3 CALM 0 0 0 0 1020.9 1017.3 0.0
23/03:00am 16.3 16.7 12.5 78 2.2 E 2 7 1 4 1020.9 1017.3 0.0
23/02:30am 18.3 17.7 13.6 74 2.8 E 9 9 5 5 1020.9 1017.3 0.0
23/02:00am 18.3 17.5 14.0 76 2.5 ESE 11 11 6 6 1021.0 1017.4 0.0
23/01:30am 16.9 16.4 12.2 74 2.7 SW 6 7 3 4 1021.1 1017.5 0.0
23/01:00am 16.9 15.8 12.0 73 2.8 W 9 11 5 6 1021.3 1017.7 0.0
23/12:30am 18.0 17.2 10.9 63 4.0 ESE 6 7 3 4 1021.0 1017.4 0.0
23/12:00am 20.5 20.2 12.7 61 4.6 E 6 9 3 5 1020.9 1017.3 0.0
 
Date/Time
EDT
Temp
°C
App
Temp
°C
Dew
Point
°C
Rel
Hum
%
Delta-T
°C
Wind Press
QNH
hPa
Press
MSL
hPa
Rain since
9am
mm
Dir  Spd
km/h
Gust
km/h
Spd
kts
Gust
kts
22/11:30pm 21.0 21.0 12.4 58 5.0 ENE 4 7 2 4 1020.8 1017.2 0.0
22/11:00pm 21.6 20.5 13.2 59 5.0 SSW 11 15 6 8 1020.8 1017.2 0.0
22/10:30pm 22.3 19.5 13.1 56 5.5 NE 20 26 11 14 1020.2 1016.6 0.0

Other Formats:

Comma delimited format used in spreadsheet applications
http://www.bom.gov.au/fwo/IDN60801/IDN60801.94729.axf

JavaScript Object Notation format (JSON) in row-major order
http://www.bom.gov.au/fwo/IDN60801/IDN60801.94729.json